sensor_id;sensor_type;location;lat;lon;timestamp;P1;durP1;ratioP1;P2;durP2;ratioP2
35364;SDS011;21464;48.112;11.530;2022-07-04T00:00:20;2.30;;;2.10;;
35364;SDS011;21464;48.112;11.530;2022-07-04T00:02:46;2.70;;;2.13;;
35364;SDS011;21464;48.112;11.530;2022-07-04T00:05:13;2.10;;;1.90;;
35364;SDS011;21464;48.112;11.530;2022-07-04T00:07:40;2.50;;;1.88;;
35364;SDS011;21464;48.112;11.530;2022-07-04T00:10:07;2.40;;;2.20;;
35364;SDS011;21464;48.112;11.530;2022-07-04T00:12:34;5.13;;;2.13;;
35364;SDS011;21464;48.112;11.530;2022-07-04T00:15:01;2.30;;;1.95;;
35364;SDS011;21464;48.112;11.530;2022-07-04T00:17:29;2.40;;;2.20;;
35364;SDS011;21464;48.112;11.530;2022-07-04T00:19:55;2.47;;;2.28;;
35364;SDS011;21464;48.112;11.530;2022-07-04T00:22:21;2.60;;;2.40;;
35364;SDS011;21464;48.112;11.530;2022-07-04T00:24:48;2.10;;;1.98;;
35364;SDS011;21464;48.112;11.530;2022-07-04T00:27:14;2.72;;;2.10;;
35364;SDS011;21464;48.112;11.530;2022-07-04T00:29:40;2.60;;;2.40;;
35364;SDS011;21464;48.112;11.530;2022-07-04T00:32:07;2.40;;;2.22;;
35364;SDS011;21464;48.112;11.530;2022-07-04T00:34:33;4.18;;;2.00;;
35364;SDS011;21464;48.112;11.530;2022-07-04T00:37:00;2.47;;;2.28;;
35364;SDS011;21464;48.112;11.530;2022-07-04T00:39:26;2.40;;;2.20;;
35364;SDS011;21464;48.112;11.530;2022-07-04T00:41:53;2.25;;;2.05;;
35364;SDS011;21464;48.112;11.530;2022-07-04T00:44:19;4.68;;;2.28;;
35364;SDS011;21464;48.112;11.530;2022-07-04T00:46:46;2.50;;;2.30;;
35364;SDS011;21464;48.112;11.530;2022-07-04T00:49:13;2.95;;;2.20;;
35364;SDS011;21464;48.112;11.530;2022-07-04T00:51:41;2.47;;;2.00;;
35364;SDS011;21464;48.112;11.530;2022-07-04T00:54:08;2.38;;;1.80;;
35364;SDS011;21464;48.112;11.530;2022-07-04T00:56:37;2.10;;;1.92;;
35364;SDS011;21464;48.112;11.530;2022-07-04T00:59:05;1.92;;;1.83;;
35364;SDS011;21464;48.112;11.530;2022-07-04T01:01:32;2.10;;;2.00;;
35364;SDS011;21464;48.112;11.530;2022-07-04T01:03:58;2.00;;;1.80;;
35364;SDS011;21464;48.112;11.530;2022-07-04T01:06:24;2.45;;;1.90;;
35364;SDS011;21464;48.112;11.530;2022-07-04T01:08:51;1.95;;;1.83;;
35364;SDS011;21464;48.112;11.530;2022-07-04T01:11:17;2.47;;;1.70;;
35364;SDS011;21464;48.112;11.530;2022-07-04T01:13:43;2.30;;;2.05;;
35364;SDS011;21464;48.112;11.530;2022-07-04T01:16:10;1.92;;;1.80;;
35364;SDS011;21464;48.112;11.530;2022-07-04T01:18:37;2.78;;;2.08;;
35364;SDS011;21464;48.112;11.530;2022-07-04T01:21:05;2.95;;;2.00;;
35364;SDS011;21464;48.112;11.530;2022-07-04T01:23:31;1.85;;;1.75;;
35364;SDS011;21464;48.112;11.530;2022-07-04T01:25:58;2.30;;;1.80;;
35364;SDS011;21464;48.112;11.530;2022-07-04T01:28:25;1.90;;;1.77;;
35364;SDS011;21464;48.112;11.530;2022-07-04T01:30:51;2.60;;;2.00;;
35364;SDS011;21464;48.112;11.530;2022-07-04T01:33:18;2.00;;;1.90;;
35364;SDS011;21464;48.112;11.530;2022-07-04T01:35:45;2.08;;;1.90;;
35364;SDS011;21464;48.112;11.530;2022-07-04T01:38:12;3.70;;;2.10;;
35364;SDS011;21464;48.112;11.530;2022-07-04T01:40:39;2.20;;;2.03;;
35364;SDS011;21464;48.112;11.530;2022-07-04T01:43:05;2.22;;;2.03;;
35364;SDS011;21464;48.112;11.530;2022-07-04T01:45:32;2.28;;;1.88;;
35364;SDS011;21464;48.112;11.530;2022-07-04T01:48:06;1.95;;;1.85;;
35364;SDS011;21464;48.112;11.530;2022-07-04T01:50:33;2.75;;;1.77;;
35364;SDS011;21464;48.112;11.530;2022-07-04T01:53:00;2.00;;;1.80;;
35364;SDS011;21464;48.112;11.530;2022-07-04T01:55:26;2.58;;;1.58;;
35364;SDS011;21464;48.112;11.530;2022-07-04T01:57:52;2.30;;;2.10;;
35364;SDS011;21464;48.112;11.530;2022-07-04T02:00:19;1.83;;;1.73;;
35364;SDS011;21464;48.112;11.530;2022-07-04T02:03:04;2.00;;;1.90;;
35364;SDS011;21464;48.112;11.530;2022-07-04T02:05:30;1.95;;;1.85;;
35364;SDS011;21464;48.112;11.530;2022-07-04T02:07:56;3.28;;;2.00;;
35364;SDS011;21464;48.112;11.530;2022-07-04T02:10:22;2.17;;;2.08;;
35364;SDS011;21464;48.112;11.530;2022-07-04T02:12:49;1.90;;;1.70;;
35364;SDS011;21464;48.112;11.530;2022-07-04T02:15:34;1.90;;;1.80;;
35364;SDS011;21464;48.112;11.530;2022-07-04T02:18:01;2.28;;;2.08;;
35364;SDS011;21464;48.112;11.530;2022-07-04T02:20:29;2.58;;;2.00;;
35364;SDS011;21464;48.112;11.530;2022-07-04T02:22:55;2.03;;;1.92;;
35364;SDS011;21464;48.112;11.530;2022-07-04T02:25:21;4.13;;;2.10;;
35364;SDS011;21464;48.112;11.530;2022-07-04T02:27:54;2.10;;;1.90;;
35364;SDS011;21464;48.112;11.530;2022-07-04T02:30:20;2.13;;;1.90;;
35364;SDS011;21464;48.112;11.530;2022-07-04T02:32:47;2.20;;;2.10;;
35364;SDS011;21464;48.112;11.530;2022-07-04T02:35:13;2.40;;;2.20;;
35364;SDS011;21464;48.112;11.530;2022-07-04T02:37:40;1.80;;;1.70;;
35364;SDS011;21464;48.112;11.530;2022-07-04T02:40:06;2.20;;;1.85;;
35364;SDS011;21464;48.112;11.530;2022-07-04T02:42:33;2.10;;;2.00;;
35364;SDS011;21464;48.112;11.530;2022-07-04T02:45:00;2.10;;;2.00;;
35364;SDS011;21464;48.112;11.530;2022-07-04T02:47:27;2.33;;;2.00;;
35364;SDS011;21464;48.112;11.530;2022-07-04T02:49:53;2.08;;;1.88;;
35364;SDS011;21464;48.112;11.530;2022-07-04T02:52:20;2.03;;;1.88;;
35364;SDS011;21464;48.112;11.530;2022-07-04T02:54:46;2.00;;;1.90;;
35364;SDS011;21464;48.112;11.530;2022-07-04T02:57:12;2.08;;;1.98;;
35364;SDS011;21464;48.112;11.530;2022-07-04T02:59:39;1.80;;;1.70;;
35364;SDS011;21464;48.112;11.530;2022-07-04T03:02:05;2.05;;;1.75;;
35364;SDS011;21464;48.112;11.530;2022-07-04T03:04:31;1.98;;;1.88;;
35364;SDS011;21464;48.112;11.530;2022-07-04T03:06:58;1.80;;;1.70;;
35364;SDS011;21464;48.112;11.530;2022-07-04T03:09:24;1.98;;;1.88;;
35364;SDS011;21464;48.112;11.530;2022-07-04T03:11:53;3.58;;;1.80;;
35364;SDS011;21464;48.112;11.530;2022-07-04T03:14:19;2.58;;;2.08;;
35364;SDS011;21464;48.112;11.530;2022-07-04T03:16:46;2.13;;;1.90;;
35364;SDS011;21464;48.112;11.530;2022-07-04T03:19:12;2.00;;;1.90;;
35364;SDS011;21464;48.112;11.530;2022-07-04T03:21:38;1.90;;;1.80;;
35364;SDS011;21464;48.112;11.530;2022-07-04T03:24:05;1.90;;;1.80;;
35364;SDS011;21464;48.112;11.530;2022-07-04T03:26:32;2.10;;;2.00;;
35364;SDS011;21464;48.112;11.530;2022-07-04T03:28:59;4.43;;;4.03;;
35364;SDS011;21464;48.112;11.530;2022-07-04T03:31:26;4.07;;;3.60;;
35364;SDS011;21464;48.112;11.530;2022-07-04T03:33:53;4.28;;;3.97;;
35364;SDS011;21464;48.112;11.530;2022-07-04T03:36:19;2.60;;;2.40;;
35364;SDS011;21464;48.112;11.530;2022-07-04T03:38:46;2.10;;;2.00;;
35364;SDS011;21464;48.112;11.530;2022-07-04T03:41:12;2.60;;;1.83;;
35364;SDS011;21464;48.112;11.530;2022-07-04T03:43:39;2.65;;;2.42;;
35364;SDS011;21464;48.112;11.530;2022-07-04T03:46:06;2.78;;;2.55;;
35364;SDS011;21464;48.112;11.530;2022-07-04T03:48:32;2.67;;;2.47;;
35364;SDS011;21464;48.112;11.530;2022-07-04T03:50:58;2.45;;;2.25;;
35364;SDS011;21464;48.112;11.530;2022-07-04T03:53:24;2.40;;;2.20;;
35364;SDS011;21464;48.112;11.530;2022-07-04T03:55:51;2.22;;;2.03;;
35364;SDS011;21464;48.112;11.530;2022-07-04T03:58:17;1.92;;;1.83;;
35364;SDS011;21464;48.112;11.530;2022-07-04T04:00:43;3.13;;;2.35;;
35364;SDS011;21464;48.112;11.530;2022-07-04T04:03:09;2.35;;;2.22;;
35364;SDS011;21464;48.112;11.530;2022-07-04T04:06:02;4.05;;;3.65;;
35364;SDS011;21464;48.112;11.530;2022-07-04T04:08:28;2.38;;;2.22;;
35364;SDS011;21464;48.112;11.530;2022-07-04T04:10:54;2.60;;;2.20;;
35364;SDS011;21464;48.112;11.530;2022-07-04T04:13:21;2.90;;;2.60;;
35364;SDS011;21464;48.112;11.530;2022-07-04T04:15:47;3.65;;;2.80;;
35364;SDS011;21464;48.112;11.530;2022-07-04T04:18:13;5.32;;;2.65;;
35364;SDS011;21464;48.112;11.530;2022-07-04T04:20:39;3.10;;;2.90;;
35364;SDS011;21464;48.112;11.530;2022-07-04T04:23:06;3.08;;;2.70;;
35364;SDS011;21464;48.112;11.530;2022-07-04T04:25:32;3.53;;;2.72;;
35364;SDS011;21464;48.112;11.530;2022-07-04T04:27:58;2.60;;;2.40;;
35364;SDS011;21464;48.112;11.530;2022-07-04T04:30:24;2.75;;;2.53;;
35364;SDS011;21464;48.112;11.530;2022-07-04T04:32:51;2.83;;;2.30;;
35364;SDS011;21464;48.112;11.530;2022-07-04T04:35:17;2.78;;;2.45;;
35364;SDS011;21464;48.112;11.530;2022-07-04T04:37:43;2.80;;;2.50;;
35364;SDS011;21464;48.112;11.530;2022-07-04T04:40:09;3.50;;;2.55;;
35364;SDS011;21464;48.112;11.530;2022-07-04T04:42:36;2.60;;;2.40;;
35364;SDS011;21464;48.112;11.530;2022-07-04T04:45:04;2.70;;;2.45;;
35364;SDS011;21464;48.112;11.530;2022-07-04T04:47:30;2.80;;;2.60;;
35364;SDS011;21464;48.112;11.530;2022-07-04T04:49:56;3.28;;;2.60;;
35364;SDS011;21464;48.112;11.530;2022-07-04T04:52:23;2.70;;;2.50;;
35364;SDS011;21464;48.112;11.530;2022-07-04T04:54:49;3.42;;;2.40;;
35364;SDS011;21464;48.112;11.530;2022-07-04T04:57:15;3.15;;;2.33;;
35364;SDS011;21464;48.112;11.530;2022-07-04T04:59:41;2.72;;;2.53;;
35364;SDS011;21464;48.112;11.530;2022-07-04T05:02:08;2.60;;;2.40;;
35364;SDS011;21464;48.112;11.530;2022-07-04T05:04:35;2.97;;;2.30;;
35364;SDS011;21464;48.112;11.530;2022-07-04T05:07:01;3.13;;;2.40;;
35364;SDS011;21464;48.112;11.530;2022-07-04T05:09:28;2.72;;;2.53;;
35364;SDS011;21464;48.112;11.530;2022-07-04T05:11:54;2.75;;;2.55;;
35364;SDS011;21464;48.112;11.530;2022-07-04T05:14:20;3.28;;;2.40;;
35364;SDS011;21464;48.112;11.530;2022-07-04T05:16:46;2.72;;;2.53;;
35364;SDS011;21464;48.112;11.530;2022-07-04T05:19:12;3.28;;;2.97;;
35364;SDS011;21464;48.112;11.530;2022-07-04T05:21:39;2.90;;;2.70;;
35364;SDS011;21464;48.112;11.530;2022-07-04T05:24:05;2.55;;;2.42;;
35364;SDS011;21464;48.112;11.530;2022-07-04T05:26:31;2.88;;;2.58;;
35364;SDS011;21464;48.112;11.530;2022-07-04T05:28:57;3.47;;;2.45;;
35364;SDS011;21464;48.112;11.530;2022-07-04T05:31:24;3.20;;;2.70;;
35364;SDS011;21464;48.112;11.530;2022-07-04T05:33:53;2.25;;;2.13;;
35364;SDS011;21464;48.112;11.530;2022-07-04T05:36:20;3.50;;;2.28;;
35364;SDS011;21464;48.112;11.530;2022-07-04T05:38:49;2.35;;;2.20;;
35364;SDS011;21464;48.112;11.530;2022-07-04T05:41:15;2.38;;;2.20;;
35364;SDS011;21464;48.112;11.530;2022-07-04T05:43:42;2.88;;;2.20;;
35364;SDS011;21464;48.112;11.530;2022-07-04T05:46:08;2.50;;;2.30;;
35364;SDS011;21464;48.112;11.530;2022-07-04T05:48:35;2.65;;;2.13;;
35364;SDS011;21464;48.112;11.530;2022-07-04T05:51:04;2.60;;;2.40;;
35364;SDS011;21464;48.112;11.530;2022-07-04T05:53:30;2.10;;;2.00;;
35364;SDS011;21464;48.112;11.530;2022-07-04T05:55:56;2.30;;;2.20;;
35364;SDS011;21464;48.112;11.530;2022-07-04T05:58:23;1.85;;;1.75;;
35364;SDS011;21464;48.112;11.530;2022-07-04T06:00:49;2.63;;;2.35;;
35364;SDS011;21464;48.112;11.530;2022-07-04T06:03:15;2.20;;;2.00;;
35364;SDS011;21464;48.112;11.530;2022-07-04T06:05:41;4.10;;;2.45;;
35364;SDS011;21464;48.112;11.530;2022-07-04T06:08:07;2.20;;;2.10;;
35364;SDS011;21464;48.112;11.530;2022-07-04T06:10:34;2.35;;;2.20;;
35364;SDS011;21464;48.112;11.530;2022-07-04T06:13:00;2.17;;;2.08;;
35364;SDS011;21464;48.112;11.530;2022-07-04T06:15:26;2.30;;;2.10;;
35364;SDS011;21464;48.112;11.530;2022-07-04T06:17:52;2.22;;;2.10;;
35364;SDS011;21464;48.112;11.530;2022-07-04T06:20:18;2.50;;;2.28;;
35364;SDS011;21464;48.112;11.530;2022-07-04T06:22:46;2.25;;;2.00;;
35364;SDS011;21464;48.112;11.530;2022-07-04T06:25:13;2.72;;;2.28;;
35364;SDS011;21464;48.112;11.530;2022-07-04T06:27:44;2.20;;;2.10;;
35364;SDS011;21464;48.112;11.530;2022-07-04T06:30:11;2.35;;;2.20;;
35364;SDS011;21464;48.112;11.530;2022-07-04T06:32:48;2.15;;;2.00;;
35364;SDS011;21464;48.112;11.530;2022-07-04T06:35:21;2.40;;;2.13;;
35364;SDS011;21464;48.112;11.530;2022-07-04T06:38:09;2.13;;;1.90;;
35364;SDS011;21464;48.112;11.530;2022-07-04T06:40:36;1.90;;;1.80;;
35364;SDS011;21464;48.112;11.530;2022-07-04T06:43:03;3.67;;;2.17;;
35364;SDS011;21464;48.112;11.530;2022-07-04T06:45:29;4.43;;;2.13;;
35364;SDS011;21464;48.112;11.530;2022-07-04T06:47:56;2.92;;;2.72;;
35364;SDS011;21464;48.112;11.530;2022-07-04T06:50:22;3.25;;;2.70;;
35364;SDS011;21464;48.112;11.530;2022-07-04T06:52:49;2.40;;;2.20;;
35364;SDS011;21464;48.112;11.530;2022-07-04T06:55:18;3.35;;;2.70;;
35364;SDS011;21464;48.112;11.530;2022-07-04T06:57:44;2.35;;;2.15;;
35364;SDS011;21464;48.112;11.530;2022-07-04T07:00:11;2.15;;;2.05;;
35364;SDS011;21464;48.112;11.530;2022-07-04T07:02:37;2.40;;;2.20;;
35364;SDS011;21464;48.112;11.530;2022-07-04T07:05:04;2.30;;;2.13;;
35364;SDS011;21464;48.112;11.530;2022-07-04T07:07:30;2.47;;;2.17;;
35364;SDS011;21464;48.112;11.530;2022-07-04T07:09:57;2.33;;;2.13;;
35364;SDS011;21464;48.112;11.530;2022-07-04T07:12:23;2.45;;;2.30;;
35364;SDS011;21464;48.112;11.530;2022-07-04T07:14:49;2.83;;;2.30;;
35364;SDS011;21464;48.112;11.530;2022-07-04T07:17:16;3.28;;;2.97;;
35364;SDS011;21464;48.112;11.530;2022-07-04T07:19:43;4.68;;;3.33;;
35364;SDS011;21464;48.112;11.530;2022-07-04T07:22:09;3.97;;;2.72;;
35364;SDS011;21464;48.112;11.530;2022-07-04T07:24:36;2.80;;;2.45;;
35364;SDS011;21464;48.112;11.530;2022-07-04T07:27:03;2.92;;;2.72;;
35364;SDS011;21464;48.112;11.530;2022-07-04T07:29:30;3.70;;;3.40;;
35364;SDS011;21464;48.112;11.530;2022-07-04T07:31:57;2.85;;;2.58;;
35364;SDS011;21464;48.112;11.530;2022-07-04T07:34:23;2.30;;;2.10;;
35364;SDS011;21464;48.112;11.530;2022-07-04T07:36:50;2.85;;;2.50;;
35364;SDS011;21464;48.112;11.530;2022-07-04T07:39:17;2.50;;;2.35;;
35364;SDS011;21464;48.112;11.530;2022-07-04T07:41:43;2.97;;;2.40;;
35364;SDS011;21464;48.112;11.530;2022-07-04T07:44:09;2.40;;;2.20;;
35364;SDS011;21464;48.112;11.530;2022-07-04T07:46:35;2.60;;;2.40;;
35364;SDS011;21464;48.112;11.530;2022-07-04T07:49:02;3.78;;;2.20;;
35364;SDS011;21464;48.112;11.530;2022-07-04T07:51:29;3.25;;;2.95;;
35364;SDS011;21464;48.112;11.530;2022-07-04T07:53:55;4.20;;;3.22;;
35364;SDS011;21464;48.112;11.530;2022-07-04T07:56:22;2.80;;;2.60;;
35364;SDS011;21464;48.112;11.530;2022-07-04T07:58:49;3.03;;;2.38;;
35364;SDS011;21464;48.112;11.530;2022-07-04T08:01:15;2.92;;;2.15;;
35364;SDS011;21464;48.112;11.530;2022-07-04T08:03:42;2.95;;;2.65;;
35364;SDS011;21464;48.112;11.530;2022-07-04T08:06:26;2.47;;;2.28;;
35364;SDS011;21464;48.112;11.530;2022-07-04T08:08:53;2.60;;;2.35;;
35364;SDS011;21464;48.112;11.530;2022-07-04T08:11:19;2.47;;;2.20;;
35364;SDS011;21464;48.112;11.530;2022-07-04T08:13:46;3.25;;;1.98;;
35364;SDS011;21464;48.112;11.530;2022-07-04T08:16:12;2.22;;;2.03;;
35364;SDS011;21464;48.112;11.530;2022-07-04T08:18:38;1.88;;;1.75;;
35364;SDS011;21464;48.112;11.530;2022-07-04T08:21:05;2.20;;;2.10;;
35364;SDS011;21464;48.112;11.530;2022-07-04T08:23:31;3.00;;;2.20;;
35364;SDS011;21464;48.112;11.530;2022-07-04T08:25:58;3.20;;;2.03;;
35364;SDS011;21464;48.112;11.530;2022-07-04T08:28:26;2.65;;;2.20;;
35364;SDS011;21464;48.112;11.530;2022-07-04T08:30:53;2.17;;;2.00;;
35364;SDS011;21464;48.112;11.530;2022-07-04T08:33:22;3.63;;;2.53;;
35364;SDS011;21464;48.112;11.530;2022-07-04T08:35:49;3.45;;;2.20;;
35364;SDS011;21464;48.112;11.530;2022-07-04T08:38:16;2.05;;;1.92;;
35364;SDS011;21464;48.112;11.530;2022-07-04T08:40:42;2.75;;;2.20;;
35364;SDS011;21464;48.112;11.530;2022-07-04T08:43:10;2.58;;;2.10;;
35364;SDS011;21464;48.112;11.530;2022-07-04T08:45:39;2.53;;;1.98;;
35364;SDS011;21464;48.112;11.530;2022-07-04T08:48:07;1.80;;;1.70;;
35364;SDS011;21464;48.112;11.530;2022-07-04T08:50:35;2.15;;;1.70;;
35364;SDS011;21464;48.112;11.530;2022-07-04T08:53:09;1.90;;;1.80;;
35364;SDS011;21464;48.112;11.530;2022-07-04T08:55:37;1.92;;;1.80;;
35364;SDS011;21464;48.112;11.530;2022-07-04T08:58:24;2.55;;;1.80;;
35364;SDS011;21464;48.112;11.530;2022-07-04T09:00:58;2.42;;;2.05;;
35364;SDS011;21464;48.112;11.530;2022-07-04T09:03:25;1.80;;;1.70;;
35364;SDS011;21464;48.112;11.530;2022-07-04T09:05:52;2.25;;;1.98;;
35364;SDS011;21464;48.112;11.530;2022-07-04T09:08:19;2.55;;;2.30;;
35364;SDS011;21464;48.112;11.530;2022-07-04T09:10:49;1.90;;;1.80;;
35364;SDS011;21464;48.112;11.530;2022-07-04T09:13:16;3.88;;;2.85;;
35364;SDS011;21464;48.112;11.530;2022-07-04T09:15:47;2.05;;;1.92;;
35364;SDS011;21464;48.112;11.530;2022-07-04T09:18:21;1.88;;;1.77;;
35364;SDS011;21464;48.112;11.530;2022-07-04T09:20:49;2.40;;;2.20;;
35364;SDS011;21464;48.112;11.530;2022-07-04T09:23:22;3.53;;;2.00;;
35364;SDS011;21464;48.112;11.530;2022-07-04T09:28:40;1.98;;;1.88;;
35364;SDS011;21464;48.112;11.530;2022-07-04T09:31:14;2.17;;;1.98;;
35364;SDS011;21464;48.112;11.530;2022-07-04T09:36:19;2.47;;;1.85;;
35364;SDS011;21464;48.112;11.530;2022-07-04T09:44:24;2.20;;;1.98;;
35364;SDS011;21464;48.112;11.530;2022-07-04T09:46:52;2.28;;;2.10;;
35364;SDS011;21464;48.112;11.530;2022-07-04T09:49:19;2.55;;;2.15;;
35364;SDS011;21464;48.112;11.530;2022-07-04T09:54:25;2.63;;;2.05;;
35364;SDS011;21464;48.112;11.530;2022-07-04T09:56:55;2.28;;;2.08;;
35364;SDS011;21464;48.112;11.530;2022-07-04T09:59:23;1.88;;;1.77;;
35364;SDS011;21464;48.112;11.530;2022-07-04T10:01:50;2.85;;;2.20;;
35364;SDS011;21464;48.112;11.530;2022-07-04T10:04:17;2.47;;;2.22;;
35364;SDS011;21464;48.112;11.530;2022-07-04T10:06:43;1.58;;;1.50;;
35364;SDS011;21464;48.112;11.530;2022-07-04T10:11:41;1.50;;;1.40;;
35364;SDS011;21464;48.112;11.530;2022-07-04T10:14:09;1.80;;;1.70;;
35364;SDS011;21464;48.112;11.530;2022-07-04T10:16:37;2.17;;;1.65;;
35364;SDS011;21464;48.112;11.530;2022-07-04T10:19:05;3.67;;;1.70;;
35364;SDS011;21464;48.112;11.530;2022-07-04T10:21:31;2.08;;;1.42;;
35364;SDS011;21464;48.112;11.530;2022-07-04T10:23:58;1.98;;;1.50;;
35364;SDS011;21464;48.112;11.530;2022-07-04T10:26:26;1.95;;;1.45;;
35364;SDS011;21464;48.112;11.530;2022-07-04T10:28:55;1.42;;;1.40;;
35364;SDS011;21464;48.112;11.530;2022-07-04T10:31:23;1.70;;;1.60;;
35364;SDS011;21464;48.112;11.530;2022-07-04T10:33:51;1.80;;;1.67;;
35364;SDS011;21464;48.112;11.530;2022-07-04T10:36:19;1.65;;;1.55;;
35364;SDS011;21464;48.112;11.530;2022-07-04T10:38:50;1.50;;;1.40;;
35364;SDS011;21464;48.112;11.530;2022-07-04T10:41:20;1.83;;;1.73;;
35364;SDS011;21464;48.112;11.530;2022-07-04T10:46:25;1.70;;;1.50;;
35364;SDS011;21464;48.112;11.530;2022-07-04T10:54:09;2.13;;;1.50;;
35364;SDS011;21464;48.112;11.530;2022-07-04T10:56:37;2.67;;;2.00;;
35364;SDS011;21464;48.112;11.530;2022-07-04T10:59:07;3.33;;;2.40;;
35364;SDS011;21464;48.112;11.530;2022-07-04T11:01:37;2.50;;;2.30;;
35364;SDS011;21464;48.112;11.530;2022-07-04T11:04:04;2.60;;;2.38;;
35364;SDS011;21464;48.112;11.530;2022-07-04T11:12:01;2.00;;;1.90;;
35364;SDS011;21464;48.112;11.530;2022-07-04T11:17:14;1.90;;;1.70;;
35364;SDS011;21464;48.112;11.530;2022-07-04T11:20:01;2.15;;;1.88;;
35364;SDS011;21464;48.112;11.530;2022-07-04T11:22:28;2.20;;;1.98;;
35364;SDS011;21464;48.112;11.530;2022-07-04T11:24:54;2.20;;;2.00;;
35364;SDS011;21464;48.112;11.530;2022-07-04T11:27:20;3.60;;;2.42;;
35364;SDS011;21464;48.112;11.530;2022-07-04T11:32:21;2.15;;;1.83;;
35364;SDS011;21464;48.112;11.530;2022-07-04T11:34:47;1.77;;;1.75;;
35364;SDS011;21464;48.112;11.530;2022-07-04T11:37:14;2.70;;;1.98;;
35364;SDS011;21464;48.112;11.530;2022-07-04T11:39:41;2.17;;;2.08;;
35364;SDS011;21464;48.112;11.530;2022-07-04T11:42:07;1.92;;;1.83;;
35364;SDS011;21464;48.112;11.530;2022-07-04T11:44:51;1.83;;;1.67;;
35364;SDS011;21464;48.112;11.530;2022-07-04T11:49:52;1.70;;;1.60;;
35364;SDS011;21464;48.112;11.530;2022-07-04T11:52:22;1.70;;;1.60;;
35364;SDS011;21464;48.112;11.530;2022-07-04T11:54:50;2.50;;;1.58;;
35364;SDS011;21464;48.112;11.530;2022-07-04T12:00:00;2.15;;;1.55;;
35364;SDS011;21464;48.112;11.530;2022-07-04T12:02:31;1.55;;;1.38;;
35364;SDS011;21464;48.112;11.530;2022-07-04T12:04:59;1.70;;;1.60;;
35364;SDS011;21464;48.112;11.530;2022-07-04T12:07:26;3.63;;;1.60;;
35364;SDS011;21464;48.112;11.530;2022-07-04T12:09:54;1.48;;;1.40;;
35364;SDS011;21464;48.112;11.530;2022-07-04T12:12:21;1.98;;;1.83;;
35364;SDS011;21464;48.112;11.530;2022-07-04T12:14:58;1.75;;;1.65;;
35364;SDS011;21464;48.112;11.530;2022-07-04T12:20:13;1.83;;;1.73;;
35364;SDS011;21464;48.112;11.530;2022-07-04T12:22:44;2.33;;;1.70;;
35364;SDS011;21464;48.112;11.530;2022-07-04T12:25:26;3.05;;;1.63;;
35364;SDS011;21464;48.112;11.530;2022-07-04T12:27:53;1.98;;;1.70;;
35364;SDS011;21464;48.112;11.530;2022-07-04T12:30:22;2.08;;;1.85;;
35364;SDS011;21464;48.112;11.530;2022-07-04T12:32:53;1.77;;;1.67;;
35364;SDS011;21464;48.112;11.530;2022-07-04T12:38:10;2.63;;;1.80;;
35364;SDS011;21464;48.112;11.530;2022-07-04T12:40:51;2.03;;;1.83;;
35364;SDS011;21464;48.112;11.530;2022-07-04T12:43:21;2.30;;;1.67;;
35364;SDS011;21464;48.112;11.530;2022-07-04T12:45:48;1.80;;;1.70;;
35364;SDS011;21464;48.112;11.530;2022-07-04T12:48:17;1.90;;;1.80;;
35364;SDS011;21464;48.112;11.530;2022-07-04T12:50:45;1.88;;;1.52;;
35364;SDS011;21464;48.112;11.530;2022-07-04T12:53:11;1.60;;;1.50;;
35364;SDS011;21464;48.112;11.530;2022-07-04T12:55:40;2.53;;;1.70;;
35364;SDS011;21464;48.112;11.530;2022-07-04T12:58:07;3.53;;;1.80;;
35364;SDS011;21464;48.112;11.530;2022-07-04T13:00:33;1.70;;;1.60;;
35364;SDS011;21464;48.112;11.530;2022-07-04T13:02:59;1.92;;;1.80;;
35364;SDS011;21464;48.112;11.530;2022-07-04T13:05:26;2.65;;;1.70;;
35364;SDS011;21464;48.112;11.530;2022-07-04T13:07:53;1.80;;;1.70;;
35364;SDS011;21464;48.112;11.530;2022-07-04T13:10:19;2.85;;;1.48;;
35364;SDS011;21464;48.112;11.530;2022-07-04T13:12:45;2.40;;;2.30;;
35364;SDS011;21464;48.112;11.530;2022-07-04T13:15:11;2.00;;;1.90;;
35364;SDS011;21464;48.112;11.530;2022-07-04T13:17:38;2.20;;;1.77;;
35364;SDS011;21464;48.112;11.530;2022-07-04T13:20:04;2.85;;;1.80;;
35364;SDS011;21464;48.112;11.530;2022-07-04T13:22:31;1.90;;;1.80;;
35364;SDS011;21464;48.112;11.530;2022-07-04T13:24:57;2.28;;;2.08;;
35364;SDS011;21464;48.112;11.530;2022-07-04T13:27:24;2.03;;;1.90;;
35364;SDS011;21464;48.112;11.530;2022-07-04T13:29:51;4.10;;;2.50;;
35364;SDS011;21464;48.112;11.530;2022-07-04T13:32:17;3.13;;;2.65;;
35364;SDS011;21464;48.112;11.530;2022-07-04T13:34:43;2.05;;;1.90;;
35364;SDS011;21464;48.112;11.530;2022-07-04T13:37:09;2.00;;;1.90;;
35364;SDS011;21464;48.112;11.530;2022-07-04T13:39:36;1.83;;;1.73;;
35364;SDS011;21464;48.112;11.530;2022-07-04T13:42:02;1.95;;;1.63;;
35364;SDS011;21464;48.112;11.530;2022-07-04T13:44:29;1.83;;;1.70;;
35364;SDS011;21464;48.112;11.530;2022-07-04T13:46:55;1.95;;;1.73;;
35364;SDS011;21464;48.112;11.530;2022-07-04T13:49:24;1.77;;;1.50;;
35364;SDS011;21464;48.112;11.530;2022-07-04T13:51:51;1.63;;;1.52;;
35364;SDS011;21464;48.112;11.530;2022-07-04T13:54:17;3.38;;;1.88;;
35364;SDS011;21464;48.112;11.530;2022-07-04T13:56:44;1.60;;;1.50;;
35364;SDS011;21464;48.112;11.530;2022-07-04T13:59:11;2.35;;;1.55;;
35364;SDS011;21464;48.112;11.530;2022-07-04T14:01:37;1.98;;;1.75;;
35364;SDS011;21464;48.112;11.530;2022-07-04T14:04:04;2.35;;;1.75;;
35364;SDS011;21464;48.112;11.530;2022-07-04T14:06:31;1.90;;;1.80;;
35364;SDS011;21464;48.112;11.530;2022-07-04T14:08:58;1.60;;;1.50;;
35364;SDS011;21464;48.112;11.530;2022-07-04T14:11:24;2.20;;;1.70;;
35364;SDS011;21464;48.112;11.530;2022-07-04T14:13:51;2.10;;;1.90;;
35364;SDS011;21464;48.112;11.530;2022-07-04T14:16:17;1.92;;;1.80;;
35364;SDS011;21464;48.112;11.530;2022-07-04T14:18:43;2.00;;;1.90;;
35364;SDS011;21464;48.112;11.530;2022-07-04T14:21:09;1.77;;;1.67;;
35364;SDS011;21464;48.112;11.530;2022-07-04T14:23:35;1.77;;;1.67;;
35364;SDS011;21464;48.112;11.530;2022-07-04T14:26:08;1.98;;;1.40;;
35364;SDS011;21464;48.112;11.530;2022-07-04T14:28:36;2.17;;;1.98;;
35364;SDS011;21464;48.112;11.530;2022-07-04T14:31:03;2.22;;;2.03;;
35364;SDS011;21464;48.112;11.530;2022-07-04T14:33:30;2.97;;;1.60;;
35364;SDS011;21464;48.112;11.530;2022-07-04T14:35:57;1.52;;;1.42;;
35364;SDS011;21464;48.112;11.530;2022-07-04T14:38:23;2.05;;;1.48;;
35364;SDS011;21464;48.112;11.530;2022-07-04T14:40:49;1.58;;;1.40;;
35364;SDS011;21464;48.112;11.530;2022-07-04T14:43:16;1.50;;;1.40;;
35364;SDS011;21464;48.112;11.530;2022-07-04T14:45:46;2.40;;;1.83;;
35364;SDS011;21464;48.112;11.530;2022-07-04T14:48:13;3.08;;;1.67;;
35364;SDS011;21464;48.112;11.530;2022-07-04T14:50:41;1.80;;;1.70;;
35364;SDS011;21464;48.112;11.530;2022-07-04T14:53:07;1.92;;;1.70;;
35364;SDS011;21464;48.112;11.530;2022-07-04T14:55:34;3.53;;;2.60;;
35364;SDS011;21464;48.112;11.530;2022-07-04T14:58:00;2.10;;;1.90;;
35364;SDS011;21464;48.112;11.530;2022-07-04T15:00:27;3.15;;;2.70;;
35364;SDS011;21464;48.112;11.530;2022-07-04T15:02:53;2.53;;;2.33;;
35364;SDS011;21464;48.112;11.530;2022-07-04T15:05:19;3.38;;;2.00;;
35364;SDS011;21464;48.112;11.530;2022-07-04T15:07:46;3.40;;;2.10;;
35364;SDS011;21464;48.112;11.530;2022-07-04T15:10:12;2.75;;;2.15;;
35364;SDS011;21464;48.112;11.530;2022-07-04T15:12:38;2.30;;;2.10;;
35364;SDS011;21464;48.112;11.530;2022-07-04T15:15:04;2.63;;;2.35;;
35364;SDS011;21464;48.112;11.530;2022-07-04T15:17:31;2.30;;;2.10;;
35364;SDS011;21464;48.112;11.530;2022-07-04T15:19:57;1.90;;;1.80;;